sensor_id;sensor_type;location;lat;lon;timestamp;P1;durP1;ratioP1;P2;durP2;ratioP2
57663;SDS011;43493;53.098;6.064;2024-03-23T00:56:15;32.33;;;6.37;;
57663;SDS011;43493;53.098;6.064;2024-03-23T00:58:41;30.03;;;5.80;;
57663;SDS011;43493;53.098;6.064;2024-03-23T01:01:07;31.57;;;6.37;;
57663;SDS011;43493;53.098;6.064;2024-03-23T01:03:33;27.47;;;6.20;;
57663;SDS011;43493;53.098;6.064;2024-03-23T01:05:59;26.40;;;6.30;;
57663;SDS011;43493;53.098;6.064;2024-03-23T01:08:25;24.33;;;5.30;;
57663;SDS011;43493;53.098;6.064;2024-03-23T01:10:57;29.57;;;5.20;;
57663;SDS011;43493;53.098;6.064;2024-03-23T01:13:24;37.07;;;6.33;;
57663;SDS011;43493;53.098;6.064;2024-03-23T01:15:51;25.97;;;5.67;;
57663;SDS011;43493;53.098;6.064;2024-03-23T01:18:17;26.07;;;5.70;;
57663;SDS011;43493;53.098;6.064;2024-03-23T01:20:43;26.63;;;5.97;;
57663;SDS011;43493;53.098;6.064;2024-03-23T01:23:10;28.40;;;5.77;;
57663;SDS011;43493;53.098;6.064;2024-03-23T01:25:36;29.80;;;6.07;;
57663;SDS011;43493;53.098;6.064;2024-03-23T01:28:02;27.13;;;5.47;;
57663;SDS011;43493;53.098;6.064;2024-03-23T01:30:28;19.50;;;4.87;;
57663;SDS011;43493;53.098;6.064;2024-03-23T01:32:53;27.17;;;5.40;;
57663;SDS011;43493;53.098;6.064;2024-03-23T01:35:19;23.37;;;4.83;;
57663;SDS011;43493;53.098;6.064;2024-03-23T01:37:45;22.90;;;4.50;;
57663;SDS011;43493;53.098;6.064;2024-03-23T01:40:11;25.43;;;5.17;;
57663;SDS011;43493;53.098;6.064;2024-03-23T01:42:38;29.53;;;5.57;;
57663;SDS011;43493;53.098;6.064;2024-03-23T01:45:08;27.77;;;5.30;;
57663;SDS011;43493;53.098;6.064;2024-03-23T01:47:35;27.67;;;5.97;;
57663;SDS011;43493;53.098;6.064;2024-03-23T01:50:01;21.50;;;4.90;;
57663;SDS011;43493;53.098;6.064;2024-03-23T01:52:27;28.27;;;5.33;;
57663;SDS011;43493;53.098;6.064;2024-03-23T01:54:53;30.60;;;5.37;;
57663;SDS011;43493;53.098;6.064;2024-03-23T01:57:22;23.70;;;6.53;;
57663;SDS011;43493;53.098;6.064;2024-03-23T01:59:48;24.43;;;4.80;;
57663;SDS011;43493;53.098;6.064;2024-03-23T02:02:14;29.77;;;5.27;;
57663;SDS011;43493;53.098;6.064;2024-03-23T02:04:42;25.10;;;5.40;;
57663;SDS011;43493;53.098;6.064;2024-03-23T02:07:08;25.00;;;5.80;;
57663;SDS011;43493;53.098;6.064;2024-03-23T02:09:34;28.33;;;5.70;;
57663;SDS011;43493;53.098;6.064;2024-03-23T02:12:01;22.00;;;6.40;;
57663;SDS011;43493;53.098;6.064;2024-03-23T02:14:27;28.03;;;5.50;;
57663;SDS011;43493;53.098;6.064;2024-03-23T02:16:53;19.53;;;4.47;;
57663;SDS011;43493;53.098;6.064;2024-03-23T02:19:19;19.10;;;5.00;;
57663;SDS011;43493;53.098;6.064;2024-03-23T02:21:44;25.47;;;5.93;;
57663;SDS011;43493;53.098;6.064;2024-03-23T02:24:12;26.58;;;5.32;;
57663;SDS011;43493;53.098;6.064;2024-03-23T02:26:37;18.27;;;4.83;;
57663;SDS011;43493;53.098;6.064;2024-03-23T02:29:03;18.07;;;4.60;;
57663;SDS011;43493;53.098;6.064;2024-03-23T02:31:29;24.23;;;5.10;;
57663;SDS011;43493;53.098;6.064;2024-03-23T02:33:54;21.10;;;4.43;;
57663;SDS011;43493;53.098;6.064;2024-03-23T02:36:20;20.17;;;4.00;;
57663;SDS011;43493;53.098;6.064;2024-03-23T02:38:46;25.37;;;5.20;;
57663;SDS011;43493;53.098;6.064;2024-03-23T02:41:12;24.97;;;4.70;;
57663;SDS011;43493;53.098;6.064;2024-03-23T02:43:38;20.10;;;4.33;;
57663;SDS011;43493;53.098;6.064;2024-03-23T02:46:04;28.10;;;4.87;;
57663;SDS011;43493;53.098;6.064;2024-03-23T02:48:30;24.40;;;5.00;;
57663;SDS011;43493;53.098;6.064;2024-03-23T02:50:55;22.20;;;3.83;;
57663;SDS011;43493;53.098;6.064;2024-03-23T02:53:21;18.30;;;3.67;;
57663;SDS011;43493;53.098;6.064;2024-03-23T02:55:47;21.13;;;4.50;;
57663;SDS011;43493;53.098;6.064;2024-03-23T02:58:13;21.67;;;4.47;;
57663;SDS011;43493;53.098;6.064;2024-03-23T03:00:39;19.77;;;3.80;;
57663;SDS011;43493;53.098;6.064;2024-03-23T03:03:05;17.63;;;4.05;;
57663;SDS011;43493;53.098;6.064;2024-03-23T03:05:32;20.00;;;4.13;;
57663;SDS011;43493;53.098;6.064;2024-03-23T03:07:58;18.80;;;4.03;;
57663;SDS011;43493;53.098;6.064;2024-03-23T03:10:23;18.53;;;3.40;;
57663;SDS011;43493;53.098;6.064;2024-03-23T03:12:49;19.47;;;4.10;;
57663;SDS011;43493;53.098;6.064;2024-03-23T03:15:15;21.07;;;4.20;;
57663;SDS011;43493;53.098;6.064;2024-03-23T03:17:40;21.63;;;3.63;;
57663;SDS011;43493;53.098;6.064;2024-03-23T03:20:06;17.60;;;3.80;;
57663;SDS011;43493;53.098;6.064;2024-03-23T03:22:32;15.03;;;3.20;;
57663;SDS011;43493;53.098;6.064;2024-03-23T03:24:58;24.07;;;4.90;;
57663;SDS011;43493;53.098;6.064;2024-03-23T03:27:25;16.97;;;2.77;;
57663;SDS011;43493;53.098;6.064;2024-03-23T03:29:51;18.37;;;3.43;;
57663;SDS011;43493;53.098;6.064;2024-03-23T03:32:16;18.10;;;3.57;;
57663;SDS011;43493;53.098;6.064;2024-03-23T03:34:42;21.33;;;3.70;;
57663;SDS011;43493;53.098;6.064;2024-03-23T03:37:07;21.60;;;4.20;;
57663;SDS011;43493;53.098;6.064;2024-03-23T03:39:33;18.67;;;4.40;;
57663;SDS011;43493;53.098;6.064;2024-03-23T03:41:59;19.33;;;3.50;;
57663;SDS011;43493;53.098;6.064;2024-03-23T03:44:26;17.98;;;3.20;;
57663;SDS011;43493;53.098;6.064;2024-03-23T03:46:52;19.37;;;3.10;;
57663;SDS011;43493;53.098;6.064;2024-03-23T03:49:18;21.60;;;4.73;;
57663;SDS011;43493;53.098;6.064;2024-03-23T03:51:44;17.50;;;3.07;;
57663;SDS011;43493;53.098;6.064;2024-03-23T03:54:09;22.37;;;3.63;;
57663;SDS011;43493;53.098;6.064;2024-03-23T03:56:35;17.90;;;3.30;;
57663;SDS011;43493;53.098;6.064;2024-03-23T03:59:01;23.70;;;4.47;;
57663;SDS011;43493;53.098;6.064;2024-03-23T04:01:26;25.30;;;3.93;;
57663;SDS011;43493;53.098;6.064;2024-03-23T04:03:52;18.80;;;3.77;;
57663;SDS011;43493;53.098;6.064;2024-03-23T04:06:21;20.90;;;3.23;;
57663;SDS011;43493;53.098;6.064;2024-03-23T04:08:46;21.42;;;5.05;;
57663;SDS011;43493;53.098;6.064;2024-03-23T04:11:12;19.90;;;3.13;;
57663;SDS011;43493;53.098;6.064;2024-03-23T04:13:38;15.03;;;3.30;;
57663;SDS011;43493;53.098;6.064;2024-03-23T04:16:06;18.77;;;4.40;;
57663;SDS011;43493;53.098;6.064;2024-03-23T04:18:32;17.93;;;3.90;;
57663;SDS011;43493;53.098;6.064;2024-03-23T04:20:57;21.10;;;4.13;;
57663;SDS011;43493;53.098;6.064;2024-03-23T04:23:23;20.10;;;3.87;;
57663;SDS011;43493;53.098;6.064;2024-03-23T04:25:49;20.93;;;3.57;;
57663;SDS011;43493;53.098;6.064;2024-03-23T04:28:14;21.27;;;3.60;;
57663;SDS011;43493;53.098;6.064;2024-03-23T04:30:40;18.57;;;4.53;;
57663;SDS011;43493;53.098;6.064;2024-03-23T04:33:06;17.97;;;3.30;;
57663;SDS011;43493;53.098;6.064;2024-03-23T04:35:31;16.10;;;2.77;;
57663;SDS011;43493;53.098;6.064;2024-03-23T04:37:57;17.13;;;3.77;;
57663;SDS011;43493;53.098;6.064;2024-03-23T04:40:23;18.05;;;4.15;;
57663;SDS011;43493;53.098;6.064;2024-03-23T04:42:50;20.58;;;3.20;;
57663;SDS011;43493;53.098;6.064;2024-03-23T04:45:15;15.33;;;2.87;;
57663;SDS011;43493;53.098;6.064;2024-03-23T04:47:41;17.17;;;3.50;;
57663;SDS011;43493;53.098;6.064;2024-03-23T04:50:07;16.57;;;3.37;;
57663;SDS011;43493;53.098;6.064;2024-03-23T04:52:33;25.95;;;3.92;;
57663;SDS011;43493;53.098;6.064;2024-03-23T04:54:59;16.90;;;3.53;;
57663;SDS011;43493;53.098;6.064;2024-03-23T04:57:24;15.60;;;3.10;;
57663;SDS011;43493;53.098;6.064;2024-03-23T04:59:50;20.00;;;3.40;;
57663;SDS011;43493;53.098;6.064;2024-03-23T05:02:15;24.67;;;3.60;;
57663;SDS011;43493;53.098;6.064;2024-03-23T05:04:41;21.03;;;3.40;;
57663;SDS011;43493;53.098;6.064;2024-03-23T05:07:07;21.37;;;3.60;;
57663;SDS011;43493;53.098;6.064;2024-03-23T05:09:33;18.90;;;4.10;;
57663;SDS011;43493;53.098;6.064;2024-03-23T05:11:59;21.30;;;3.17;;
57663;SDS011;43493;53.098;6.064;2024-03-23T05:14:28;14.15;;;3.03;;
57663;SDS011;43493;53.098;6.064;2024-03-23T05:16:54;13.73;;;3.10;;
57663;SDS011;43493;53.098;6.064;2024-03-23T05:19:19;18.87;;;2.97;;
57663;SDS011;43493;53.098;6.064;2024-03-23T05:21:45;19.00;;;3.13;;
57663;SDS011;43493;53.098;6.064;2024-03-23T05:24:11;18.73;;;3.43;;
57663;SDS011;43493;53.098;6.064;2024-03-23T05:26:37;19.65;;;3.65;;
57663;SDS011;43493;53.098;6.064;2024-03-23T05:29:03;15.97;;;3.70;;
57663;SDS011;43493;53.098;6.064;2024-03-23T05:31:30;16.57;;;3.33;;
57663;SDS011;43493;53.098;6.064;2024-03-23T05:33:56;15.48;;;4.30;;
57663;SDS011;43493;53.098;6.064;2024-03-23T05:36:22;15.97;;;3.53;;
57663;SDS011;43493;53.098;6.064;2024-03-23T05:38:49;18.45;;;3.13;;
57663;SDS011;43493;53.098;6.064;2024-03-23T05:41:15;17.47;;;3.73;;
57663;SDS011;43493;53.098;6.064;2024-03-23T05:43:41;20.20;;;4.13;;
57663;SDS011;43493;53.098;6.064;2024-03-23T05:46:06;15.20;;;2.60;;
57663;SDS011;43493;53.098;6.064;2024-03-23T05:48:35;16.42;;;3.03;;
57663;SDS011;43493;53.098;6.064;2024-03-23T05:51:00;16.50;;;3.60;;
57663;SDS011;43493;53.098;6.064;2024-03-23T05:53:26;16.43;;;3.67;;
57663;SDS011;43493;53.098;6.064;2024-03-23T05:55:59;17.02;;;3.38;;
57663;SDS011;43493;53.098;6.064;2024-03-23T05:58:28;14.88;;;2.90;;
57663;SDS011;43493;53.098;6.064;2024-03-23T06:00:58;16.10;;;3.17;;
57663;SDS011;43493;53.098;6.064;2024-03-23T06:03:25;16.13;;;3.03;;
57663;SDS011;43493;53.098;6.064;2024-03-23T06:05:51;18.53;;;3.40;;
57663;SDS011;43493;53.098;6.064;2024-03-23T06:08:18;17.50;;;2.55;;
57663;SDS011;43493;53.098;6.064;2024-03-23T06:10:44;15.57;;;3.38;;
57663;SDS011;43493;53.098;6.064;2024-03-23T06:13:11;17.15;;;3.63;;
57663;SDS011;43493;53.098;6.064;2024-03-23T06:15:37;20.98;;;4.65;;
57663;SDS011;43493;53.098;6.064;2024-03-23T06:18:03;15.30;;;3.50;;
57663;SDS011;43493;53.098;6.064;2024-03-23T06:20:29;16.73;;;3.90;;
57663;SDS011;43493;53.098;6.064;2024-03-23T06:22:55;19.93;;;3.57;;
57663;SDS011;43493;53.098;6.064;2024-03-23T06:25:21;18.10;;;3.87;;
57663;SDS011;43493;53.098;6.064;2024-03-23T06:27:47;12.77;;;3.27;;
57663;SDS011;43493;53.098;6.064;2024-03-23T06:30:13;18.03;;;2.90;;
57663;SDS011;43493;53.098;6.064;2024-03-23T06:32:39;12.97;;;2.10;;
57663;SDS011;43493;53.098;6.064;2024-03-23T06:35:04;13.03;;;2.77;;
57663;SDS011;43493;53.098;6.064;2024-03-23T06:37:33;12.90;;;3.00;;
57663;SDS011;43493;53.098;6.064;2024-03-23T06:40:04;9.30;;;2.23;;
57663;SDS011;43493;53.098;6.064;2024-03-23T06:42:33;10.43;;;2.30;;
57663;SDS011;43493;53.098;6.064;2024-03-23T06:44:59;9.87;;;1.80;;
57663;SDS011;43493;53.098;6.064;2024-03-23T06:47:24;10.50;;;1.93;;
57663;SDS011;43493;53.098;6.064;2024-03-23T06:49:50;9.07;;;1.63;;
57663;SDS011;43493;53.098;6.064;2024-03-23T06:52:16;12.13;;;2.30;;
57663;SDS011;43493;53.098;6.064;2024-03-23T06:54:42;13.97;;;2.17;;
57663;SDS011;43493;53.098;6.064;2024-03-23T06:57:10;10.17;;;2.60;;
57663;SDS011;43493;53.098;6.064;2024-03-23T06:59:37;6.20;;;1.40;;
57663;SDS011;43493;53.098;6.064;2024-03-23T07:02:04;11.10;;;2.00;;
57663;SDS011;43493;53.098;6.064;2024-03-23T07:04:30;14.13;;;2.17;;
57663;SDS011;43493;53.098;6.064;2024-03-23T07:06:56;8.33;;;2.10;;
57663;SDS011;43493;53.098;6.064;2024-03-23T07:09:21;6.17;;;1.43;;
57663;SDS011;43493;53.098;6.064;2024-03-23T07:11:51;12.23;;;2.03;;
57663;SDS011;43493;53.098;6.064;2024-03-23T07:14:18;10.33;;;2.40;;
57663;SDS011;43493;53.098;6.064;2024-03-23T07:16:44;13.60;;;2.67;;
57663;SDS011;43493;53.098;6.064;2024-03-23T07:19:09;9.53;;;1.73;;
57663;SDS011;43493;53.098;6.064;2024-03-23T07:21:35;9.80;;;2.10;;
57663;SDS011;43493;53.098;6.064;2024-03-23T07:24:01;8.20;;;1.70;;
57663;SDS011;43493;53.098;6.064;2024-03-23T07:26:26;12.67;;;2.47;;
57663;SDS011;43493;53.098;6.064;2024-03-23T07:28:53;12.50;;;3.77;;
57663;SDS011;43493;53.098;6.064;2024-03-23T07:31:19;12.73;;;2.33;;
57663;SDS011;43493;53.098;6.064;2024-03-23T07:33:45;11.87;;;2.13;;
57663;SDS011;43493;53.098;6.064;2024-03-23T07:36:12;10.70;;;2.07;;
57663;SDS011;43493;53.098;6.064;2024-03-23T07:38:41;13.83;;;3.30;;
57663;SDS011;43493;53.098;6.064;2024-03-23T07:41:10;16.60;;;3.57;;
57663;SDS011;43493;53.098;6.064;2024-03-23T07:43:37;14.27;;;3.70;;
57663;SDS011;43493;53.098;6.064;2024-03-23T07:46:04;10.17;;;2.60;;
57663;SDS011;43493;53.098;6.064;2024-03-23T07:48:30;12.27;;;3.07;;
57663;SDS011;43493;53.098;6.064;2024-03-23T07:51:03;11.20;;;2.20;;
57663;SDS011;43493;53.098;6.064;2024-03-23T07:53:33;15.10;;;3.83;;
57663;SDS011;43493;53.098;6.064;2024-03-23T07:56:00;13.93;;;2.80;;
57663;SDS011;43493;53.098;6.064;2024-03-23T07:58:28;14.50;;;3.57;;
57663;SDS011;43493;53.098;6.064;2024-03-23T08:00:54;13.33;;;3.37;;
57663;SDS011;43493;53.098;6.064;2024-03-23T08:03:20;13.40;;;2.63;;
57663;SDS011;43493;53.098;6.064;2024-03-23T08:05:46;12.10;;;3.50;;
57663;SDS011;43493;53.098;6.064;2024-03-23T08:08:12;17.60;;;3.17;;
57663;SDS011;43493;53.098;6.064;2024-03-23T08:10:47;18.33;;;4.07;;
57663;SDS011;43493;53.098;6.064;2024-03-23T08:13:14;17.40;;;3.63;;
57663;SDS011;43493;53.098;6.064;2024-03-23T08:15:39;16.30;;;3.10;;
57663;SDS011;43493;53.098;6.064;2024-03-23T08:18:05;18.20;;;2.63;;
57663;SDS011;43493;53.098;6.064;2024-03-23T08:20:31;10.93;;;2.90;;
57663;SDS011;43493;53.098;6.064;2024-03-23T08:22:56;17.57;;;3.50;;
57663;SDS011;43493;53.098;6.064;2024-03-23T08:25:22;16.90;;;3.23;;
57663;SDS011;43493;53.098;6.064;2024-03-23T08:27:48;17.17;;;3.80;;
57663;SDS011;43493;53.098;6.064;2024-03-23T08:30:13;22.37;;;3.73;;
57663;SDS011;43493;53.098;6.064;2024-03-23T08:32:39;14.53;;;3.60;;
57663;SDS011;43493;53.098;6.064;2024-03-23T08:35:05;14.33;;;3.70;;
57663;SDS011;43493;53.098;6.064;2024-03-23T08:37:32;16.80;;;3.57;;
57663;SDS011;43493;53.098;6.064;2024-03-23T08:39:57;17.90;;;3.90;;
57663;SDS011;43493;53.098;6.064;2024-03-23T08:42:24;16.00;;;3.50;;
57663;SDS011;43493;53.098;6.064;2024-03-23T08:44:49;14.90;;;4.13;;
57663;SDS011;43493;53.098;6.064;2024-03-23T08:47:15;16.13;;;3.23;;
57663;SDS011;43493;53.098;6.064;2024-03-23T08:49:41;15.17;;;3.23;;
57663;SDS011;43493;53.098;6.064;2024-03-23T08:52:08;16.60;;;3.33;;
57663;SDS011;43493;53.098;6.064;2024-03-23T08:54:34;14.50;;;2.60;;
57663;SDS011;43493;53.098;6.064;2024-03-23T08:56:59;14.27;;;2.57;;
57663;SDS011;43493;53.098;6.064;2024-03-23T08:59:25;13.80;;;2.83;;
57663;SDS011;43493;53.098;6.064;2024-03-23T09:01:51;11.67;;;2.37;;
57663;SDS011;43493;53.098;6.064;2024-03-23T09:04:17;17.60;;;3.50;;
57663;SDS011;43493;53.098;6.064;2024-03-23T09:06:43;13.93;;;2.50;;
57663;SDS011;43493;53.098;6.064;2024-03-23T09:09:08;11.13;;;2.83;;
57663;SDS011;43493;53.098;6.064;2024-03-23T09:11:34;17.03;;;2.80;;
57663;SDS011;43493;53.098;6.064;2024-03-23T09:14:00;11.57;;;2.03;;
57663;SDS011;43493;53.098;6.064;2024-03-23T09:16:25;9.20;;;1.67;;
57663;SDS011;43493;53.098;6.064;2024-03-23T09:18:51;9.40;;;2.00;;
57663;SDS011;43493;53.098;6.064;2024-03-23T09:21:17;8.67;;;2.10;;
57663;SDS011;43493;53.098;6.064;2024-03-23T09:23:44;14.03;;;2.93;;
57663;SDS011;43493;53.098;6.064;2024-03-23T09:26:10;14.67;;;2.80;;
57663;SDS011;43493;53.098;6.064;2024-03-23T09:28:36;13.43;;;2.50;;
57663;SDS011;43493;53.098;6.064;2024-03-23T09:31:02;13.77;;;3.07;;
57663;SDS011;43493;53.098;6.064;2024-03-23T09:33:32;14.13;;;2.40;;
57663;SDS011;43493;53.098;6.064;2024-03-23T09:36:04;11.97;;;2.60;;
57663;SDS011;43493;53.098;6.064;2024-03-23T09:38:31;12.57;;;2.53;;
57663;SDS011;43493;53.098;6.064;2024-03-23T09:40:57;10.80;;;2.13;;
57663;SDS011;43493;53.098;6.064;2024-03-23T09:43:23;7.63;;;2.00;;
57663;SDS011;43493;53.098;6.064;2024-03-23T09:45:49;8.50;;;2.10;;
57663;SDS011;43493;53.098;6.064;2024-03-23T09:48:15;10.53;;;2.20;;
57663;SDS011;43493;53.098;6.064;2024-03-23T09:50:42;13.37;;;2.63;;
57663;SDS011;43493;53.098;6.064;2024-03-23T09:53:10;11.03;;;2.20;;
57663;SDS011;43493;53.098;6.064;2024-03-23T09:55:36;11.83;;;2.40;;
57663;SDS011;43493;53.098;6.064;2024-03-23T09:58:03;10.27;;;2.30;;
57663;SDS011;43493;53.098;6.064;2024-03-23T10:00:33;12.00;;;3.00;;
57663;SDS011;43493;53.098;6.064;2024-03-23T10:02:59;13.83;;;3.60;;
57663;SDS011;43493;53.098;6.064;2024-03-23T10:05:29;14.73;;;2.90;;
57663;SDS011;43493;53.098;6.064;2024-03-23T10:08:17;15.97;;;3.07;;
57663;SDS011;43493;53.098;6.064;2024-03-23T10:10:44;13.80;;;2.57;;
57663;SDS011;43493;53.098;6.064;2024-03-23T10:13:11;20.07;;;3.10;;
57663;SDS011;43493;53.098;6.064;2024-03-23T10:15:48;13.80;;;3.47;;
57663;SDS011;43493;53.098;6.064;2024-03-23T10:18:24;11.43;;;2.40;;
57663;SDS011;43493;53.098;6.064;2024-03-23T10:20:52;14.67;;;2.70;;
57663;SDS011;43493;53.098;6.064;2024-03-23T10:23:47;14.57;;;3.35;;
57663;SDS011;43493;53.098;6.064;2024-03-23T10:26:18;8.77;;;1.77;;
57663;SDS011;43493;53.098;6.064;2024-03-23T10:28:57;6.43;;;1.43;;
57663;SDS011;43493;53.098;6.064;2024-03-23T10:31:30;8.03;;;1.70;;
57663;SDS011;43493;53.098;6.064;2024-03-23T10:33:57;7.30;;;2.23;;
57663;SDS011;43493;53.098;6.064;2024-03-23T10:36:23;14.27;;;2.43;;
57663;SDS011;43493;53.098;6.064;2024-03-23T10:38:51;10.37;;;2.40;;
57663;SDS011;43493;53.098;6.064;2024-03-23T10:41:17;7.57;;;2.10;;
57663;SDS011;43493;53.098;6.064;2024-03-23T10:43:47;11.87;;;2.30;;
57663;SDS011;43493;53.098;6.064;2024-03-23T10:46:13;11.83;;;2.07;;
57663;SDS011;43493;53.098;6.064;2024-03-23T10:48:40;10.43;;;2.03;;
57663;SDS011;43493;53.098;6.064;2024-03-23T10:51:06;10.03;;;2.20;;
57663;SDS011;43493;53.098;6.064;2024-03-23T10:53:34;11.13;;;2.47;;
57663;SDS011;43493;53.098;6.064;2024-03-23T10:56:00;8.97;;;1.93;;
57663;SDS011;43493;53.098;6.064;2024-03-23T10:58:30;8.70;;;2.10;;
57663;SDS011;43493;53.098;6.064;2024-03-23T11:00:56;10.60;;;2.80;;
57663;SDS011;43493;53.098;6.064;2024-03-23T11:03:33;10.97;;;2.93;;
57663;SDS011;43493;53.098;6.064;2024-03-23T11:06:00;10.50;;;2.20;;
57663;SDS011;43493;53.098;6.064;2024-03-23T11:11:14;11.47;;;2.80;;
57663;SDS011;43493;53.098;6.064;2024-03-23T11:13:42;11.13;;;2.57;;
57663;SDS011;43493;53.098;6.064;2024-03-23T11:16:21;10.90;;;2.70;;
57663;SDS011;43493;53.098;6.064;2024-03-23T11:22:03;9.83;;;2.37;;
57663;SDS011;43493;53.098;6.064;2024-03-23T11:24:33;12.37;;;2.33;;
57663;SDS011;43493;53.098;6.064;2024-03-23T11:26:59;14.27;;;3.00;;
57663;SDS011;43493;53.098;6.064;2024-03-23T11:29:29;14.57;;;3.20;;
57663;SDS011;43493;53.098;6.064;2024-03-23T11:31:55;12.67;;;3.13;;
57663;SDS011;43493;53.098;6.064;2024-03-23T11:34:21;15.33;;;3.27;;
57663;SDS011;43493;53.098;6.064;2024-03-23T11:36:47;13.47;;;2.27;;
57663;SDS011;43493;53.098;6.064;2024-03-23T11:39:15;7.50;;;2.00;;
57663;SDS011;43493;53.098;6.064;2024-03-23T11:41:55;8.07;;;2.27;;
57663;SDS011;43493;53.098;6.064;2024-03-23T11:44:22;8.27;;;1.70;;
57663;SDS011;43493;53.098;6.064;2024-03-23T11:46:50;7.97;;;1.73;;
57663;SDS011;43493;53.098;6.064;2024-03-23T11:49:21;7.60;;;2.00;;
57663;SDS011;43493;53.098;6.064;2024-03-23T11:51:47;7.50;;;1.97;;
57663;SDS011;43493;53.098;6.064;2024-03-23T11:54:14;7.97;;;1.50;;
57663;SDS011;43493;53.098;6.064;2024-03-23T11:56:39;5.97;;;1.50;;
57663;SDS011;43493;53.098;6.064;2024-03-23T11:59:06;10.97;;;1.70;;
57663;SDS011;43493;53.098;6.064;2024-03-23T12:01:32;9.63;;;2.27;;
57663;SDS011;43493;53.098;6.064;2024-03-23T12:03:58;11.53;;;2.50;;
57663;SDS011;43493;53.098;6.064;2024-03-23T12:06:23;10.90;;;2.37;;
57663;SDS011;43493;53.098;6.064;2024-03-23T12:08:50;15.27;;;2.97;;
57663;SDS011;43493;53.098;6.064;2024-03-23T12:11:16;9.33;;;2.40;;
57663;SDS011;43493;53.098;6.064;2024-03-23T12:13:45;17.67;;;2.83;;
57663;SDS011;43493;53.098;6.064;2024-03-23T12:16:13;13.10;;;2.53;;
57663;SDS011;43493;53.098;6.064;2024-03-23T12:18:43;10.80;;;1.97;;
57663;SDS011;43493;53.098;6.064;2024-03-23T12:21:09;6.40;;;1.30;;
57663;SDS011;43493;53.098;6.064;2024-03-23T12:23:35;5.10;;;1.30;;
57663;SDS011;43493;53.098;6.064;2024-03-23T12:26:03;6.00;;;1.43;;
57663;SDS011;43493;53.098;6.064;2024-03-23T12:28:29;7.20;;;2.03;;
57663;SDS011;43493;53.098;6.064;2024-03-23T12:30:55;7.23;;;1.50;;
57663;SDS011;43493;53.098;6.064;2024-03-23T12:33:21;4.20;;;0.90;;
57663;SDS011;43493;53.098;6.064;2024-03-23T12:35:47;4.33;;;0.90;;
57663;SDS011;43493;53.098;6.064;2024-03-23T12:38:13;9.63;;;1.90;;
57663;SDS011;43493;53.098;6.064;2024-03-23T12:40:39;10.57;;;2.33;;
57663;SDS011;43493;53.098;6.064;2024-03-23T12:43:06;10.77;;;2.10;;
57663;SDS011;43493;53.098;6.064;2024-03-23T12:45:32;11.93;;;2.10;;
57663;SDS011;43493;53.098;6.064;2024-03-23T12:47:58;12.77;;;2.03;;
57663;SDS011;43493;53.098;6.064;2024-03-23T12:50:24;8.53;;;2.30;;
57663;SDS011;43493;53.098;6.064;2024-03-23T12:52:50;9.47;;;2.20;;
57663;SDS011;43493;53.098;6.064;2024-03-23T12:55:16;12.07;;;2.23;;
57663;SDS011;43493;53.098;6.064;2024-03-23T12:57:42;11.23;;;2.97;;
57663;SDS011;43493;53.098;6.064;2024-03-23T13:00:08;13.83;;;2.60;;
57663;SDS011;43493;53.098;6.064;2024-03-23T13:02:36;15.23;;;2.70;;
57663;SDS011;43493;53.098;6.064;2024-03-23T13:05:05;13.17;;;2.87;;
57663;SDS011;43493;53.098;6.064;2024-03-23T13:07:33;14.60;;;2.53;;
57663;SDS011;43493;53.098;6.064;2024-03-23T13:09:58;13.60;;;3.40;;
57663;SDS011;43493;53.098;6.064;2024-03-23T13:12:24;11.17;;;2.40;;
57663;SDS011;43493;53.098;6.064;2024-03-23T13:14:50;15.03;;;4.07;;
57663;SDS011;43493;53.098;6.064;2024-03-23T13:17:15;13.73;;;3.17;;
57663;SDS011;43493;53.098;6.064;2024-03-23T13:19:41;22.73;;;4.57;;
57663;SDS011;43493;53.098;6.064;2024-03-23T13:22:07;14.83;;;3.00;;
57663;SDS011;43493;53.098;6.064;2024-03-23T13:24:33;13.63;;;3.47;;
57663;SDS011;43493;53.098;6.064;2024-03-23T13:26:59;13.30;;;3.30;;
57663;SDS011;43493;53.098;6.064;2024-03-23T13:29:25;11.17;;;2.63;;
57663;SDS011;43493;53.098;6.064;2024-03-23T13:31:51;14.00;;;3.03;;
57663;SDS011;43493;53.098;6.064;2024-03-23T13:34:17;12.03;;;2.43;;
57663;SDS011;43493;53.098;6.064;2024-03-23T13:36:46;11.23;;;3.23;;
57663;SDS011;43493;53.098;6.064;2024-03-23T13:39:13;11.90;;;2.47;;
57663;SDS011;43493;53.098;6.064;2024-03-23T13:41:41;14.00;;;3.17;;
57663;SDS011;43493;53.098;6.064;2024-03-23T13:44:11;11.57;;;2.50;;
57663;SDS011;43493;53.098;6.064;2024-03-23T13:46:37;12.37;;;2.90;;
57663;SDS011;43493;53.098;6.064;2024-03-23T13:49:04;17.20;;;3.60;;
57663;SDS011;43493;53.098;6.064;2024-03-23T13:51:31;14.87;;;2.60;;
57663;SDS011;43493;53.098;6.064;2024-03-23T13:53:57;10.73;;;2.47;;
57663;SDS011;43493;53.098;6.064;2024-03-23T13:56:26;10.27;;;2.30;;
57663;SDS011;43493;53.098;6.064;2024-03-23T13:58:53;13.13;;;2.83;;
57663;SDS011;43493;53.098;6.064;2024-03-23T14:01:20;11.30;;;3.03;;
57663;SDS011;43493;53.098;6.064;2024-03-23T14:03:46;13.87;;;2.73;;
57663;SDS011;43493;53.098;6.064;2024-03-23T14:06:11;18.57;;;2.90;;
57663;SDS011;43493;53.098;6.064;2024-03-23T14:08:37;16.00;;;3.47;;
57663;SDS011;43493;53.098;6.064;2024-03-23T14:11:07;15.93;;;3.27;;
57663;SDS011;43493;53.098;6.064;2024-03-23T14:13:36;18.00;;;3.13;;
57663;SDS011;43493;53.098;6.064;2024-03-23T14:16:03;11.37;;;3.27;;
57663;SDS011;43493;53.098;6.064;2024-03-23T14:18:29;16.60;;;3.53;;
57663;SDS011;43493;53.098;6.064;2024-03-23T14:20:58;17.17;;;2.80;;
57663;SDS011;43493;53.098;6.064;2024-03-23T14:23:26;13.27;;;3.30;;
57663;SDS011;43493;53.098;6.064;2024-03-23T14:25:55;14.63;;;2.60;;
57663;SDS011;43493;53.098;6.064;2024-03-23T14:28:22;16.87;;;3.27;;
57663;SDS011;43493;53.098;6.064;2024-03-23T14:30:51;12.37;;;2.53;;
57663;SDS011;43493;53.098;6.064;2024-03-23T14:33:20;8.57;;;2.00;;
57663;SDS011;43493;53.098;6.064;2024-03-23T14:35:52;17.03;;;3.03;;
57663;SDS011;43493;53.098;6.064;2024-03-23T14:38:18;12.80;;;2.70;;
57663;SDS011;43493;53.098;6.064;2024-03-23T14:40:45;11.33;;;2.03;;
57663;SDS011;43493;53.098;6.064;2024-03-23T14:43:11;11.73;;;2.17;;
57663;SDS011;43493;53.098;6.064;2024-03-23T14:45:45;11.43;;;2.00;;
57663;SDS011;43493;53.098;6.064;2024-03-23T14:48:33;15.10;;;2.80;;
57663;SDS011;43493;53.098;6.064;2024-03-23T14:51:00;11.67;;;2.67;;
57663;SDS011;43493;53.098;6.064;2024-03-23T14:53:26;14.37;;;2.87;;
57663;SDS011;43493;53.098;6.064;2024-03-23T14:55:58;14.67;;;2.83;;
57663;SDS011;43493;53.098;6.064;2024-03-23T14:58:25;15.70;;;4.10;;
57663;SDS011;43493;53.098;6.064;2024-03-23T15:00:51;13.00;;;2.73;;
57663;SDS011;43493;53.098;6.064;2024-03-23T15:03:17;12.17;;;2.57;;
57663;SDS011;43493;53.098;6.064;2024-03-23T15:05:55;13.70;;;2.63;;
57663;SDS011;43493;53.098;6.064;2024-03-23T15:08:22;17.97;;;3.53;;
57663;SDS011;43493;53.098;6.064;2024-03-23T15:10:48;13.13;;;3.17;;
57663;SDS011;43493;53.098;6.064;2024-03-23T15:13:14;19.57;;;3.07;;
57663;SDS011;43493;53.098;6.064;2024-03-23T15:15:41;10.73;;;2.50;;
57663;SDS011;43493;53.098;6.064;2024-03-23T15:18:12;13.67;;;2.90;;
57663;SDS011;43493;53.098;6.064;2024-03-23T15:20:38;12.00;;;2.57;;
57663;SDS011;43493;53.098;6.064;2024-03-23T15:23:04;12.97;;;3.10;;
57663;SDS011;43493;53.098;6.064;2024-03-23T15:25:30;16.23;;;3.30;;
57663;SDS011;43493;53.098;6.064;2024-03-23T15:27:56;16.10;;;3.70;;
57663;SDS011;43493;53.098;6.064;2024-03-23T15:30:23;13.63;;;3.10;;
57663;SDS011;43493;53.098;6.064;2024-03-23T15:32:49;10.87;;;3.10;;
57663;SDS011;43493;53.098;6.064;2024-03-23T15:35:15;15.53;;;3.13;;